Time;durP1;ratioP1;P1;durP2;ratioP2;P2;SDS_P1;SDS_P2;PMS_P1;PMS_P2;Temp;Humidity;BMP_temperature;BMP_pressure;BME280_temperature;BME280_humidity;BME280_pressure;Samples;Min_cycle;Max_cycle;Signal;HPM_P1;HPM_P2
2023/06/18 00:01:56;;;;;;;5.07;3.70;;;17.80;76.20;;;;;;5033457;28;20478;-84
2023/06/18 00:04:23;;;;;;;3.63;2.97;;;17.70;77.50;;;;;;5033516;28;20455;-83
2023/06/18 00:06:49;;;;;;;3.13;2.80;;;17.70;77.50;;;;;;5033572;28;20490;-83
2023/06/18 00:09:17;;;;;;;4.43;3.10;;;17.70;76.50;;;;;;5033170;28;20439;-84
2023/06/18 00:11:44;;;;;;;3.10;2.73;;;17.70;78.00;;;;;;5033457;28;20446;-84
2023/06/18 00:14:11;;;;;;;4.20;2.70;;;17.60;77.40;;;;;;5033400;28;20517;-83
2023/06/18 00:16:38;;;;;;;3.33;3.00;;;17.60;76.60;;;;;;5033191;28;20542;-84
2023/06/18 00:19:05;;;;;;;2.80;2.50;;;17.50;77.20;;;;;;5034274;28;20842;-83
2023/06/18 00:21:32;;;;;;;5.30;4.00;;;17.50;78.30;;;;;;5033262;28;20479;-83
2023/06/18 00:23:58;;;;;;;5.27;4.60;;;17.50;77.90;;;;;;5032983;28;20821;-84
2023/06/18 00:26:26;;;;;;;5.17;3.60;;;17.50;77.90;;;;;;5032721;28;21004;-83
2023/06/18 00:28:53;;;;;;;5.00;4.00;;;17.50;77.80;;;;;;5033014;28;20431;-84
2023/06/18 00:31:20;;;;;;;3.60;2.93;;;17.50;78.00;;;;;;5033249;28;20443;-83
2023/06/18 00:33:47;;;;;;;3.70;3.40;;;17.50;78.30;;;;;;5033243;28;20455;-84
2023/06/18 00:36:15;;;;;;;3.57;3.13;;;17.50;78.60;;;;;;5033162;28;20528;-83
2023/06/18 00:38:45;;;;;;;3.60;3.03;;;17.40;79.20;;;;;;5033183;28;20447;-83
2023/06/18 00:41:12;;;;;;;3.77;3.03;;;17.40;79.20;;;;;;5033125;28;20446;-83
2023/06/18 00:43:40;;;;;;;3.43;2.97;;;17.40;80.00;;;;;;5033139;28;20461;-83
2023/06/18 00:46:08;;;;;;;5.43;3.30;;;17.30;80.40;;;;;;5032739;28;20439;-84
2023/06/18 00:48:35;;;;;;;5.10;3.73;;;17.30;80.70;;;;;;5034801;28;20461;-84
2023/06/18 00:51:03;;;;;;;7.17;3.10;;;17.20;83.10;;;;;;5037035;28;20445;-83
2023/06/18 00:53:30;;;;;;;8.20;3.50;;;17.20;82.00;;;;;;5037053;28;20573;-84
2023/06/18 00:55:57;;;;;;;4.53;3.23;;;17.20;82.50;;;;;;5036631;28;20970;-84
2023/06/18 00:58:25;;;;;;;5.70;3.70;;;17.10;82.00;;;;;;5037163;28;20553;-83
2023/06/18 01:00:53;;;;;;;3.37;2.43;;;17.10;82.20;;;;;;5036861;28;20479;-83
2023/06/18 01:03:21;;;;;;;5.63;3.67;;;17.00;82.40;;;;;;5036743;28;20489;-84
2023/06/18 01:05:51;;;;;;;4.87;3.70;;;17.00;81.80;;;;;;5036725;28;20449;-83
2023/06/18 01:08:23;;;;;;;4.17;3.60;;;17.00;82.10;;;;;;5037147;28;20474;-84
2023/06/18 01:11:00;;;;;;;7.17;3.30;;;17.00;82.20;;;;;;5037179;28;20443;-83
2023/06/18 01:13:30;;;;;;;6.63;4.10;;;17.00;83.60;;;;;;5036676;28;20430;-83
2023/06/18 01:16:03;;;;;;;4.27;3.50;;;16.90;84.40;;;;;;5036363;28;20439;-83
2023/06/18 01:18:34;;;;;;;4.50;3.53;;;16.90;83.80;;;;;;5036574;28;20438;-83
2023/06/18 01:21:05;;;;;;;7.63;3.70;;;16.90;83.40;;;;;;5037117;28;20509;-83
2023/06/18 01:23:45;;;;;;;5.67;3.20;;;16.80;83.40;;;;;;5036635;28;20478;-83
2023/06/18 01:26:12;;;;;;;4.63;4.20;;;16.80;82.80;;;;;;5036157;28;20454;-83
2023/06/18 01:28:40;;;;;;;6.40;4.40;;;16.80;83.00;;;;;;5036093;28;20903;-83
2023/06/18 01:31:08;;;;;;;5.00;3.43;;;16.70;83.40;;;;;;5036223;28;20529;-84
2023/06/18 01:33:36;;;;;;;4.70;2.80;;;16.70;83.90;;;;;;5035985;28;20943;-84
2023/06/18 01:36:05;;;;;;;4.97;3.50;;;16.70;83.20;;;;;;5036161;28;20459;-83
2023/06/18 01:38:37;;;;;;;5.70;3.33;;;16.70;83.90;;;;;;5036196;28;20434;-83
2023/06/18 01:41:12;;;;;;;3.13;2.80;;;16.70;85.00;;;;;;5036007;28;20415;-83
2023/06/18 01:43:45;;;;;;;6.97;3.80;;;16.70;84.70;;;;;;5036053;28;20474;-83
2023/06/18 01:46:17;;;;;;;4.53;2.77;;;16.70;85.50;;;;;;5035994;28;20485;-83
2023/06/18 01:48:47;;;;;;;3.10;2.80;;;16.60;87.00;;;;;;5035971;28;21009;-83
2023/06/18 01:51:17;;;;;;;7.40;4.20;;;16.60;86.90;;;;;;5035668;28;20819;-83
2023/06/18 01:53:45;;;;;;;9.90;3.97;;;16.50;87.10;;;;;;5035642;28;20803;-83
2023/06/18 01:56:13;;;;;;;6.93;3.00;;;16.50;86.80;;;;;;5035445;28;20977;-83
2023/06/18 01:58:42;;;;;;;5.57;3.53;;;16.50;86.60;;;;;;5035237;28;20486;-83
2023/06/18 02:01:09;;;;;;;4.80;3.87;;;16.60;86.90;;;;;;5035668;28;20440;-83
2023/06/18 02:03:38;;;;;;;4.43;3.53;;;16.50;87.50;;;;;;5035658;28;20481;-83
2023/06/18 02:06:05;;;;;;;8.80;4.63;;;16.50;86.70;;;;;;5035562;28;20831;-83
2023/06/18 02:08:32;;;;;;;4.90;3.50;;;16.50;87.50;;;;;;5035638;28;20446;-83
2023/06/18 02:10:59;;;;;;;5.90;4.53;;;16.50;87.20;;;;;;5035350;28;20437;-83
2023/06/18 02:13:25;;;;;;;5.73;3.13;;;16.40;88.10;;;;;;5035581;28;20451;-83
2023/06/18 02:15:52;;;;;;;6.57;4.60;;;16.40;88.70;;;;;;5035478;28;20459;-83
2023/06/18 02:18:19;;;;;;;4.00;3.70;;;16.40;88.70;;;;;;5035233;28;20529;-83
2023/06/18 02:20:47;;;;;;;5.20;3.20;;;16.40;89.10;;;;;;5035162;28;20458;-83
2023/06/18 02:23:14;;;;;;;4.57;3.20;;;16.30;88.50;;;;;;5035294;28;20489;-83
2023/06/18 02:25:44;;;;;;;7.20;3.70;;;16.30;89.10;;;;;;5035098;28;20435;-84
2023/06/18 02:28:11;;;;;;;5.90;3.70;;;16.20;90.10;;;;;;5035193;28;20486;-83
2023/06/18 02:30:38;;;;;;;4.77;4.30;;;16.30;90.00;;;;;;5035443;28;20444;-81
2023/06/18 02:33:06;;;;;;;4.47;3.47;;;16.20;90.00;;;;;;5034847;28;20453;-81
2023/06/18 02:35:33;;;;;;;3.93;3.57;;;16.20;90.10;;;;;;5035133;28;20454;-81
2023/06/18 02:38:02;;;;;;;6.67;3.23;;;16.20;90.20;;;;;;5034962;28;20493;-81
2023/06/18 02:40:29;;;;;;;6.30;3.57;;;16.20;89.90;;;;;;5034715;28;20435;-81
2023/06/18 02:42:56;;;;;;;5.60;3.60;;;16.20;90.00;;;;;;5034912;28;20509;-81
2023/06/18 02:45:25;;;;;;;8.20;4.00;;;16.10;90.00;;;;;;5035199;28;20535;-81
2023/06/18 02:47:52;;;;;;;3.83;3.53;;;16.10;90.30;;;;;;5034815;28;20881;-82
2023/06/18 02:50:20;;;;;;;5.50;3.07;;;16.10;90.20;;;;;;5035466;28;20455;-81
2023/06/18 02:52:47;;;;;;;3.83;3.40;;;16.00;90.60;;;;;;5034720;28;20458;-81
2023/06/18 02:55:16;;;;;;;6.93;2.93;;;16.00;91.30;;;;;;5034938;28;20450;-81
2023/06/18 02:57:43;;;;;;;3.40;3.10;;;16.00;90.70;;;;;;5034639;28;20471;-81
2023/06/18 03:00:11;;;;;;;3.67;3.37;;;16.00;91.80;;;;;;5034619;28;20447;-81
2023/06/18 03:02:39;;;;;;;8.30;3.80;;;16.00;91.00;;;;;;5034526;28;20488;-81
2023/06/18 03:05:05;;;;;;;4.50;3.17;;;16.00;90.60;;;;;;5034529;28;20454;-81
2023/06/18 03:07:32;;;;;;;5.23;4.10;;;15.90;90.60;;;;;;5034206;28;20998;-81
2023/06/18 03:09:59;;;;;;;7.23;4.00;;;15.90;91.00;;;;;;5034158;28;20454;-81
2023/06/18 03:12:28;;;;;;;6.97;4.13;;;15.90;90.90;;;;;;5033825;28;20493;-82
2023/06/18 03:14:55;;;;;;;4.90;4.03;;;15.90;91.00;;;;;;5034057;28;20500;-81
2023/06/18 03:17:22;;;;;;;3.57;3.23;;;15.90;91.00;;;;;;5033895;28;20474;-81
2023/06/18 03:19:48;;;;;;;2.97;2.73;;;15.90;90.80;;;;;;5034242;28;20454;-82
2023/06/18 03:22:16;;;;;;;4.67;3.90;;;15.90;90.80;;;;;;5033816;28;20998;-81
2023/06/18 03:24:43;;;;;;;4.00;2.90;;;16.00;90.40;;;;;;5034120;28;20445;-81
2023/06/18 03:27:09;;;;;;;3.03;2.53;;;16.00;91.00;;;;;;5033737;28;20823;-81
2023/06/18 03:29:37;;;;;;;6.50;3.37;;;16.00;91.20;;;;;;5034067;28;20453;-82
2023/06/18 03:32:05;;;;;;;4.43;4.03;;;16.00;91.30;;;;;;5033713;28;20821;-81
2023/06/18 03:34:33;;;;;;;3.70;2.67;;;16.00;91.80;;;;;;5034009;28;20462;-81
2023/06/18 03:37:00;;;;;;;4.67;2.83;;;16.00;91.70;;;;;;5034140;28;20463;-82
2023/06/18 03:39:27;;;;;;;3.37;3.00;;;16.00;91.40;;;;;;5033960;28;20492;-81
2023/06/18 03:41:54;;;;;;;7.10;3.83;;;16.00;91.00;;;;;;5033922;28;20450;-82
2023/06/18 03:44:21;;;;;;;3.97;3.27;;;16.00;90.90;;;;;;5034304;28;20477;-81
2023/06/18 03:46:49;;;;;;;4.20;3.40;;;16.00;91.30;;;;;;5033658;28;20466;-81
2023/06/18 03:49:16;;;;;;;4.93;3.37;;;16.00;91.80;;;;;;5033817;28;20811;-82
2023/06/18 03:51:43;;;;;;;3.33;2.67;;;16.10;92.50;;;;;;5033429;28;20958;-81
2023/06/18 03:54:10;;;;;;;3.07;2.60;;;16.10;92.60;;;;;;5033347;28;20453;-81
2023/06/18 03:56:37;;;;;;;5.47;3.67;;;16.20;91.90;;;;;;5033446;28;20505;-82
2023/06/18 03:59:04;;;;;;;3.63;3.33;;;16.30;91.80;;;;;;5033329;28;20929;-81
2023/06/18 04:01:30;;;;;;;5.90;4.47;;;16.30;91.70;;;;;;5033636;28;20497;-82
2023/06/18 04:03:59;;;;;;;2.60;2.40;;;16.40;91.20;;;;;;5033236;28;20486;-81
2023/06/18 04:06:27;;;;;;;8.37;3.50;;;16.40;92.60;;;;;;5033481;28;20475;-82
2023/06/18 04:08:53;;;;;;;6.10;3.93;;;16.40;92.10;;;;;;5033481;28;20454;-81
2023/06/18 04:11:21;;;;;;;4.50;3.17;;;16.60;92.50;;;;;;5033437;28;20455;-82
2023/06/18 04:13:47;;;;;;;5.57;3.47;;;16.60;92.50;;;;;;5033380;28;20810;-82
2023/06/18 04:16:14;;;;;;;6.00;3.90;;;16.70;92.00;;;;;;5033055;28;20493;-81
2023/06/18 04:18:41;;;;;;;3.20;2.87;;;16.80;92.10;;;;;;5033528;28;20457;-82
2023/06/18 04:21:09;;;;;;;5.00;2.90;;;16.90;92.40;;;;;;5033059;28;20954;-82
2023/06/18 04:23:36;;;;;;;5.77;3.73;;;16.90;92.30;;;;;;5032691;28;21029;-81
2023/06/18 04:26:02;;;;;;;6.53;4.40;;;17.00;92.50;;;;;;5032802;28;20992;-82
2023/06/18 04:28:29;;;;;;;6.57;4.50;;;17.10;92.30;;;;;;5033029;28;20427;-82
2023/06/18 04:30:56;;;;;;;7.13;4.10;;;17.20;92.40;;;;;;5033214;28;20447;-81
2023/06/18 04:33:23;;;;;;;3.97;3.23;;;17.20;92.80;;;;;;5032979;28;20439;-82
2023/06/18 04:35:49;;;;;;;4.73;3.03;;;17.30;93.00;;;;;;5032899;28;20453;-82
2023/06/18 04:38:17;;;;;;;7.07;3.93;;;17.40;92.50;;;;;;5033126;28;20509;-82
2023/06/18 04:40:45;;;;;;;7.40;4.23;;;17.50;92.50;;;;;;5032824;28;20973;-82
2023/06/18 04:43:11;;;;;;;3.83;2.87;;;17.60;93.80;;;;;;5032717;28;20581;-82
2023/06/18 04:45:38;;;;;;;4.37;3.30;;;17.60;93.80;;;;;;5033061;28;20458;-81
2023/06/18 04:48:07;;;;;;;6.20;3.37;;;17.60;94.80;;;;;;5032733;28;20467;-82
2023/06/18 04:50:33;;;;;;;7.10;4.00;;;17.60;94.40;;;;;;5033080;28;20480;-82
2023/06/18 04:53:00;;;;;;;7.40;4.50;;;17.70;94.10;;;;;;5032710;28;20943;-82
2023/06/18 04:55:28;;;;;;;5.60;4.30;;;17.60;94.00;;;;;;5033006;28;20462;-82
2023/06/18 04:57:55;;;;;;;4.67;4.13;;;17.60;94.20;;;;;;5032643;28;21052;-82
2023/06/18 05:00:22;;;;;;;5.13;4.27;;;17.50;94.60;;;;;;5032636;28;20461;-82
2023/06/18 05:02:49;;;;;;;5.23;3.70;;;17.60;95.40;;;;;;5032861;28;20482;-82
2023/06/18 05:05:16;;;;;;;4.97;4.03;;;17.50;95.50;;;;;;5032973;28;20485;-81
2023/06/18 05:07:43;;;;;;;6.47;4.73;;;17.50;95.40;;;;;;5032844;28;20466;-82
2023/06/18 05:10:11;;;;;;;5.30;3.80;;;17.50;95.50;;;;;;5032637;28;20442;-82
2023/06/18 05:12:39;;;;;;;4.00;3.07;;;17.50;96.00;;;;;;5032514;28;20824;-81
2023/06/18 05:15:07;;;;;;;5.13;3.90;;;17.50;95.80;;;;;;5032852;28;20450;-82
2023/06/18 05:17:35;;;;;;;4.90;4.30;;;17.50;96.50;;;;;;5032791;28;20471;-82
2023/06/18 05:20:03;;;;;;;7.07;4.43;;;17.50;97.20;;;;;;5032999;28;20450;-82
2023/06/18 05:22:30;;;;;;;4.97;4.10;;;17.50;97.20;;;;;;5032981;28;20453;-82
2023/06/18 05:24:59;;;;;;;5.80;4.10;;;17.60;97.80;;;;;;5032712;28;20888;-82
2023/06/18 05:27:26;;;;;;;8.10;4.63;;;17.70;97.10;;;;;;5032328;28;20872;-82
2023/06/18 05:29:54;;;;;;;5.10;4.00;;;17.80;96.60;;;;;;5032572;28;20441;-82
2023/06/18 05:32:21;;;;;;;10.83;5.10;;;17.90;95.70;;;;;;5032735;28;20509;-82
2023/06/18 05:34:47;;;;;;;3.47;3.20;;;17.90;95.60;;;;;;5034337;28;20461;-83
2023/06/18 05:37:14;;;;;;;7.23;4.00;;;18.00;95.40;;;;;;5036152;28;20489;-82
2023/06/18 05:39:41;;;;;;;5.23;3.77;;;18.20;95.50;;;;;;5036011;28;20438;-83
2023/06/18 05:42:09;;;;;;;6.57;4.20;;;18.30;95.40;;;;;;5036105;28;20462;-82
2023/06/18 05:44:35;;;;;;;6.60;4.40;;;18.40;95.40;;;;;;5036054;28;20486;-82
2023/06/18 05:47:04;;;;;;;6.20;4.20;;;18.50;95.00;;;;;;5035926;28;20819;-83
2023/06/18 05:49:31;;;;;;;5.10;3.93;;;18.70;95.00;;;;;;5035843;28;20947;-83
2023/06/18 05:51:58;;;;;;;9.53;5.03;;;18.80;94.90;;;;;;5036081;28;20450;-82
2023/06/18 05:54:26;;;;;;;8.50;4.53;;;19.00;94.70;;;;;;5035651;28;20522;-83
2023/06/18 05:56:52;;;;;;;4.47;3.97;;;19.20;94.70;;;;;;5035753;28;20458;-83
2023/06/18 05:59:19;;;;;;;7.17;4.30;;;19.30;94.50;;;;;;5035839;28;20454;-83
2023/06/18 06:01:46;;;;;;;4.67;3.30;;;19.50;93.60;;;;;;5035742;28;20447;-83
2023/06/18 06:04:14;;;;;;;6.53;3.73;;;19.60;93.40;;;;;;5035399;28;20833;-83
2023/06/18 06:06:41;;;;;;;5.87;4.13;;;19.80;93.20;;;;;;5035645;28;20466;-83
2023/06/18 06:09:08;;;;;;;8.20;4.83;;;20.00;92.70;;;;;;5035614;28;20442;-83
2023/06/18 06:11:36;;;;;;;4.57;4.10;;;20.20;92.90;;;;;;5035941;28;20461;-83
2023/06/18 06:14:03;;;;;;;4.97;3.80;;;20.40;92.50;;;;;;5035580;28;20549;-83
2023/06/18 06:16:30;;;;;;;4.97;3.70;;;20.60;92.60;;;;;;5035603;28;20818;-83
2023/06/18 06:18:56;;;;;;;6.33;4.67;;;20.80;92.50;;;;;;5035148;28;20901;-83
2023/06/18 06:21:25;;;;;;;4.20;3.57;;;21.00;91.60;;;;;;5036129;28;20458;-83
2023/06/18 06:23:52;;;;;;;5.20;4.20;;;21.20;91.60;;;;;;5035363;28;20536;-83
2023/06/18 06:26:18;;;;;;;5.53;4.10;;;21.50;91.20;;;;;;5035002;28;20486;-82
2023/06/18 06:28:45;;;;;;;6.87;4.63;;;21.80;90.00;;;;;;5035347;28;20423;-83
2023/06/18 06:31:12;;;;;;;5.13;3.83;;;22.10;83.80;;;;;;5035010;28;20195;-83
2023/06/18 06:33:38;;;;;;;4.90;3.43;;;22.30;82.00;;;;;;5035152;28;20685;-83
2023/06/18 06:36:07;;;;;;;6.85;4.20;;;22.60;80.00;;;;;;5035097;28;20196;-83
2023/06/18 06:38:35;;;;;;;3.88;3.47;;;22.80;80.00;;;;;;5035136;28;20211;-83
2023/06/18 06:41:01;;;;;;;3.83;3.40;;;23.10;76.90;;;;;;5035079;28;20269;-83
2023/06/18 06:43:28;;;;;;;3.72;3.22;;;23.40;75.40;;;;;;5035306;28;20219;-83
2023/06/18 06:45:55;;;;;;;4.63;3.65;;;23.70;73.60;;;;;;5034524;28;20199;-83
2023/06/18 06:48:22;;;;;;;4.72;3.88;;;23.90;73.60;;;;;;5034962;28;20207;-83
2023/06/18 06:50:48;;;;;;;4.40;3.13;;;24.00;74.40;;;;;;5034559;28;20575;-83
2023/06/18 06:53:15;;;;;;;3.45;2.90;;;24.20;71.60;;;;;;5034598;28;20690;-83
2023/06/18 06:55:43;;;;;;;4.00;3.58;;;24.20;68.50;;;;;;5034747;28;20211;-84
2023/06/18 06:58:10;;;;;;;4.10;3.25;;;24.30;70.90;;;;;;5034673;28;20212;-83
2023/06/18 07:00:36;;;;;;;2.95;2.75;;;24.30;71.10;;;;;;5034432;28;20286;-83
2023/06/18 07:03:04;;;;;;;3.40;2.95;;;24.30;70.10;;;;;;5034328;28;20207;-83
2023/06/18 07:05:30;;;;;;;5.43;3.38;;;24.20;67.10;;;;;;5035113;28;20203;-83
2023/06/18 07:07:57;;;;;;;4.60;3.08;;;24.40;68.00;;;;;;5034417;28;20224;-83
2023/06/18 07:10:24;;;;;;;6.72;2.85;;;24.40;68.50;;;;;;5034518;28;20208;-84
2023/06/18 07:12:52;;;;;;;3.10;2.50;;;24.50;68.30;;;;;;5034490;28;20188;-84
2023/06/18 07:15:19;;;;;;;2.95;2.72;;;24.60;65.50;;;;;;5034339;28;20196;-84
2023/06/18 07:17:46;;;;;;;4.35;3.28;;;24.70;66.80;;;;;;5034289;28;20223;-84
2023/06/18 07:20:13;;;;;;;3.40;3.10;;;24.80;67.20;;;;;;5034290;28;20198;-84
2023/06/18 07:22:39;;;;;;;3.88;3.20;;;24.80;67.00;;;;;;5033952;28;20206;-84
2023/06/18 07:25:07;;;;;;;3.67;3.20;;;24.80;67.60;;;;;;5034133;28;20227;-84
2023/06/18 07:27:35;;;;;;;4.38;3.17;;;24.80;67.30;;;;;;5033777;28;20235;-83
2023/06/18 07:30:03;;;;;;;5.47;3.30;;;24.90;67.00;;;;;;5034418;28;20241;-84
2023/06/18 07:32:30;;;;;;;3.53;3.22;;;25.10;67.40;;;;;;5034124;28;20188;-84
2023/06/18 07:34:57;;;;;;;4.45;2.58;;;25.20;67.40;;;;;;5034523;28;20211;-84
2023/06/18 07:37:23;;;;;;;4.50;2.97;;;25.50;67.30;;;;;;5033916;28;20733;-84
2023/06/18 07:39:50;;;;;;;3.92;3.55;;;25.40;66.00;;;;;;5033693;28;20204;-84
2023/06/18 07:42:17;;;;;;;3.78;2.38;;;25.60;65.80;;;;;;5033938;28;20207;-84
2023/06/18 07:44:44;;;;;;;3.95;3.03;;;25.80;66.00;;;;;;5033886;28;20227;-83
2023/06/18 07:47:12;;;;;;;3.03;2.72;;;26.00;66.60;;;;;;5033759;28;20223;-84
2023/06/18 07:49:38;;;;;;;4.57;3.42;;;26.20;65.60;;;;;;5034235;28;20563;-84
2023/06/18 07:52:07;;;;;;;5.07;3.30;;;26.10;64.90;;;;;;5034254;28;20204;-84
2023/06/18 07:54:35;;;;;;;2.78;2.58;;;26.30;65.00;;;;;;5033971;28;20203;-84
2023/06/18 07:57:02;;;;;;;3.33;3.03;;;26.60;65.00;;;;;;5033164;28;20223;-84
2023/06/18 07:59:28;;;;;;;3.90;3.17;;;26.70;64.00;;;;;;5033844;28;20199;-84
2023/06/18 08:01:56;;;;;;;4.68;3.50;;;26.80;63.80;;;;;;5033614;28;20206;-84
2023/06/18 08:04:24;;;;;;;3.90;3.50;;;27.10;62.70;;;;;;5033421;28;20219;-84
2023/06/18 08:06:51;;;;;;;3.60;3.20;;;27.20;62.60;;;;;;5033488;28;20282;-84
2023/06/18 08:09:19;;;;;;;4.20;3.42;;;27.60;61.80;;;;;;5033203;28;20702;-84
2023/06/18 08:11:46;;;;;;;2.97;2.72;;;28.00;60.50;;;;;;5033402;28;20207;-84
2023/06/18 08:14:12;;;;;;;3.20;2.70;;;28.60;60.00;;;;;;5033565;28;20213;-84
2023/06/18 08:16:39;;;;;;;3.38;3.17;;;29.00;58.90;;;;;;5033347;28;20225;-84
2023/06/18 08:19:06;;;;;;;3.33;3.13;;;29.60;58.30;;;;;;5033372;28;20204;-85
2023/06/18 08:21:34;;;;;;;3.00;2.80;;;30.20;56.30;;;;;;5033185;28;20205;-84
2023/06/18 08:24:01;;;;;;;2.60;2.40;;;30.90;55.30;;;;;;5033278;28;20251;-84
2023/06/18 08:26:28;;;;;;;3.00;2.80;;;31.30;54.50;;;;;;5032792;28;20227;-84
2023/06/18 08:28:55;;;;;;;3.60;3.30;;;31.40;54.00;;;;;;5032963;28;20195;-84
2023/06/18 08:31:21;;;;;;;3.03;2.83;;;31.30;54.90;;;;;;5032964;28;20700;-84
2023/06/18 08:33:48;;;;;;;3.00;2.80;;;30.80;55.10;;;;;;5033456;28;20203;-84
2023/06/18 08:36:15;;;;;;;2.78;2.58;;;30.30;56.20;;;;;;5033111;28;20234;-85
2023/06/18 08:38:43;;;;;;;2.60;2.35;;;30.10;56.70;;;;;;5032777;28;20721;-84
2023/06/18 08:41:11;;;;;;;2.28;2.08;;;29.70;55.60;;;;;;5033022;28;20224;-84
2023/06/18 08:43:38;;;;;;;2.97;2.78;;;29.60;55.40;;;;;;5033089;28;20277;-84
2023/06/18 08:46:10;;;;;;;4.45;3.22;;;29.60;56.00;;;;;;5032786;28;20214;-84
2023/06/18 08:48:42;;;;;;;3.15;2.83;;;29.60;56.30;;;;;;5033775;28;20216;-84
2023/06/18 08:51:10;;;;;;;2.58;2.38;;;29.90;56.50;;;;;;5033094;28;20217;-84
2023/06/18 08:53:45;;;;;;;4.20;3.00;;;30.40;56.10;;;;;;5033098;28;20207;-85
2023/06/18 08:56:15;;;;;;;2.50;2.30;;;30.90;54.10;;;;;;5033311;28;20194;-85
2023/06/18 08:58:48;;;;;;;3.33;3.03;;;31.40;52.80;;;;;;5032737;28;20180;-84
2023/06/18 09:01:15;;;;;;;2.53;2.30;;;31.80;53.60;;;;;;5032929;28;20188;-84
2023/06/18 09:03:42;;;;;;;2.75;2.47;;;32.10;53.10;;;;;;5032861;28;20218;-83
2023/06/18 09:06:10;;;;;;;2.50;2.35;;;32.00;51.80;;;;;;5032554;28;20203;-84
2023/06/18 09:08:37;;;;;;;3.22;2.35;;;31.80;50.50;;;;;;5032931;28;20547;-84
2023/06/18 09:11:06;;;;;;;2.60;2.50;;;31.50;50.70;;;;;;5036399;28;20578;-84
2023/06/18 09:13:33;;;;;;;3.60;2.92;;;31.20;51.40;;;;;;5036879;28;20212;-84
2023/06/18 09:16:00;;;;;;;3.20;2.88;;;31.00;49.70;;;;;;5036572;28;20193;-83
2023/06/18 09:18:27;;;;;;;2.63;2.47;;;30.70;49.50;;;;;;5036649;28;20207;-84
2023/06/18 09:20:54;;;;;;;2.97;2.75;;;30.50;50.20;;;;;;5036551;28;20213;-84
2023/06/18 09:23:21;;;;;;;3.55;3.20;;;30.20;51.20;;;;;;5036198;28;20204;-83
2023/06/18 09:25:52;;;;;;;2.25;2.15;;;30.00;51.80;;;;;;5036025;28;20346;-85
2023/06/18 09:28:21;;;;;;;2.63;2.40;;;29.70;50.50;;;;;;5035768;28;20243;-84
2023/06/18 09:30:52;;;;;;;2.80;2.42;;;29.30;50.00;;;;;;5036507;28;20213;-84
2023/06/18 09:33:30;;;;;;;2.85;2.70;;;29.10;52.00;;;;;;5036129;28;20680;-83
2023/06/18 09:36:01;;;;;;;2.63;2.42;;;28.90;52.70;;;;;;5036406;28;20193;-84
2023/06/18 09:38:36;;;;;;;2.92;2.72;;;29.00;51.70;;;;;;5036112;28;20216;-84
2023/06/18 09:41:03;;;;;;;3.35;2.40;;;29.20;51.20;;;;;;5035833;28;20202;-83
2023/06/18 09:43:43;;;;;;;2.67;2.47;;;29.30;51.30;;;;;;5035801;28;20564;-84
2023/06/18 09:46:11;;;;;;;3.13;2.63;;;29.40;51.00;;;;;;5036039;28;20223;-84
2023/06/18 09:48:40;;;;;;;2.83;2.60;;;29.40;51.30;;;;;;5035937;28;20298;-83
2023/06/18 09:51:08;;;;;;;2.65;2.55;;;29.20;51.70;;;;;;5035932;28;20203;-83
2023/06/18 09:53:35;;;;;;;5.25;3.20;;;29.20;51.60;;;;;;5035669;28;20215;-83
2023/06/18 09:56:10;;;;;;;2.88;2.67;;;29.20;50.80;;;;;;5035439;28;20703;-84
2023/06/18 09:58:43;;;;;;;3.67;3.35;;;29.30;51.20;;;;;;5035766;28;20544;-83
2023/06/18 10:01:10;;;;;;;2.97;2.78;;;29.30;52.20;;;;;;5035423;28;20203;-83
2023/06/18 10:03:37;;;;;;;2.50;2.30;;;29.20;50.90;;;;;;5035615;28;20202;-84
2023/06/18 10:06:16;;;;;;;3.25;2.90;;;29.20;52.10;;;;;;5035514;28;20239;-84
2023/06/18 10:08:45;;;;;;;2.78;2.58;;;29.30;50.90;;;;;;5035369;28;20206;-83
2023/06/18 10:11:12;;;;;;;3.38;2.53;;;29.20;51.40;;;;;;5035337;28;20220;-84
2023/06/18 10:13:45;;;;;;;2.70;2.50;;;29.30;50.10;;;;;;5035547;28;20218;-84
2023/06/18 10:16:14;;;;;;;3.50;3.20;;;29.30;50.50;;;;;;5035632;28;20289;-84
2023/06/18 10:18:47;;;;;;;4.15;3.03;;;29.30;50.50;;;;;;5035466;28;20208;-85
2023/06/18 10:21:15;;;;;;;2.10;2.00;;;29.40;50.90;;;;;;5035047;28;20198;-84
2023/06/18 10:23:42;;;;;;;3.03;2.72;;;29.50;50.00;;;;;;5035281;28;20566;-83
2023/06/18 10:26:10;;;;;;;2.50;2.30;;;29.50;49.70;;;;;;5034792;28;20709;-83
2023/06/18 10:28:38;;;;;;;3.70;2.85;;;29.40;50.10;;;;;;5035099;28;20202;-82
2023/06/18 10:31:07;;;;;;;3.03;2.58;;;29.60;50.40;;;;;;5035231;28;20214;-82
2023/06/18 10:33:36;;;;;;;4.38;3.03;;;29.60;50.20;;;;;;5035208;28;20211;-82
2023/06/18 10:36:03;;;;;;;2.90;2.70;;;29.60;50.30;;;;;;5035298;28;20202;-83
2023/06/18 10:38:30;;;;;;;2.95;2.75;;;29.40;49.90;;;;;;5034799;28;20210;-82
2023/06/18 10:41:08;;;;;;;2.85;2.65;;;29.40;50.50;;;;;;5035123;28;20218;-82
2023/06/18 10:43:39;;;;;;;3.15;2.95;;;29.50;50.10;;;;;;5035379;28;20194;-82
2023/06/18 10:46:12;;;;;;;2.78;2.58;;;29.60;49.80;;;;;;5034887;28;20302;-82
2023/06/18 10:48:39;;;;;;;3.55;2.92;;;29.60;50.40;;;;;;5034957;28;20196;-81
2023/06/18 10:51:13;;;;;;;2.58;2.38;;;29.50;50.10;;;;;;5034557;28;20694;-81
2023/06/18 10:53:40;;;;;;;2.88;2.67;;;29.40;51.20;;;;;;5034867;28;20206;-81
2023/06/18 10:56:07;;;;;;;3.13;2.63;;;29.40;50.70;;;;;;5034286;28;20687;-83
2023/06/18 10:58:37;;;;;;;3.50;3.20;;;29.70;50.20;;;;;;5034444;28;20747;-81
2023/06/18 11:01:04;;;;;;;2.95;2.50;;;29.80;49.70;;;;;;5035261;28;20208;-82
2023/06/18 11:03:36;;;;;;;2.63;2.42;;;30.00;50.40;;;;;;5034282;28;20253;-82
2023/06/18 11:06:04;;;;;;;3.38;2.65;;;30.40;48.10;;;;;;5034479;28;20220;-80
2023/06/18 11:08:32;;;;;;;3.25;2.95;;;30.70;48.50;;;;;;5034522;28;20214;-81
2023/06/18 11:11:03;;;;;;;2.90;2.70;;;30.80;47.60;;;;;;5034965;28;20610;-82
2023/06/18 11:13:32;;;;;;;2.95;2.50;;;30.90;49.00;;;;;;5034599;28;20225;-82
2023/06/18 11:16:02;;;;;;;3.50;3.20;;;30.90;47.70;;;;;;5034493;28;20237;-82
2023/06/18 11:18:30;;;;;;;2.78;2.58;;;30.70;49.10;;;;;;5034632;28;20203;-82
2023/06/18 11:20:59;;;;;;;2.40;2.20;;;30.60;47.90;;;;;;5034240;28;20211;-82
2023/06/18 11:23:27;;;;;;;2.55;2.35;;;30.30;48.20;;;;;;5034272;28;20213;-83
2023/06/18 11:25:54;;;;;;;2.60;2.40;;;30.20;48.30;;;;;;5034377;28;20258;-82
2023/06/18 11:28:22;;;;;;;2.63;2.47;;;30.00;47.80;;;;;;5033707;28;20345;-82
2023/06/18 11:30:52;;;;;;;3.80;2.80;;;29.80;48.40;;;;;;5034143;28;20295;-82
2023/06/18 11:33:22;;;;;;;3.80;2.35;;;29.70;49.30;;;;;;5033450;28;20245;-82
2023/06/18 11:35:49;;;;;;;2.88;2.45;;;29.60;48.90;;;;;;5034066;28;20214;-82
2023/06/18 11:38:19;;;;;;;3.03;2.80;;;29.60;49.20;;;;;;5033929;28;20223;-82
2023/06/18 11:40:53;;;;;;;3.55;3.15;;;29.50;49.70;;;;;;5033928;28;20203;-82
2023/06/18 11:43:20;;;;;;;3.17;2.97;;;29.50;49.20;;;;;;5034613;28;20218;-82
2023/06/18 11:45:48;;;;;;;2.92;2.72;;;29.50;49.60;;;;;;5033779;28;20599;-82
2023/06/18 11:48:17;;;;;;;2.38;2.28;;;29.40;49.00;;;;;;5033811;28;20283;-82
2023/06/18 11:50:44;;;;;;;2.63;2.42;;;29.50;50.40;;;;;;5034330;28;20201;-83
2023/06/18 11:53:11;;;;;;;3.72;2.03;;;29.60;49.20;;;;;;5033767;28;20230;-82
2023/06/18 11:55:41;;;;;;;2.40;2.30;;;29.60;49.10;;;;;;5033730;28;20244;-81
2023/06/18 11:58:08;;;;;;;3.30;3.10;;;29.50;49.50;;;;;;5033792;28;20262;-81
2023/06/18 12:00:35;;;;;;;2.53;2.33;;;29.40;48.50;;;;;;5033348;28;20213;-81
2023/06/18 12:03:02;;;;;;;3.00;2.72;;;29.40;49.30;;;;;;5033587;28;20219;-82
2023/06/18 12:05:35;;;;;;;3.03;2.75;;;29.40;48.80;;;;;;5033512;28;20668;-82
2023/06/18 12:08:09;;;;;;;2.65;2.45;;;29.40;48.90;;;;;;5033276;28;20221;-81
2023/06/18 12:10:39;;;;;;;2.60;2.40;;;29.30;49.40;;;;;;5033857;28;20195;-81
2023/06/18 12:13:17;;;;;;;2.80;2.60;;;29.30;49.70;;;;;;5033210;28;20190;-81
2023/06/18 12:15:51;;;;;;;4.65;2.92;;;29.20;50.00;;;;;;5034171;28;20550;-81
2023/06/18 12:18:22;;;;;;;2.38;2.17;;;29.20;51.00;;;;;;5033193;28;20234;-81
2023/06/18 12:20:49;;;;;;;3.25;2.65;;;29.20;49.90;;;;;;5033466;28;20191;-81
2023/06/18 12:23:17;;;;;;;3.35;3.03;;;29.30;49.20;;;;;;5033110;28;20208;-81
2023/06/18 12:25:45;;;;;;;2.75;2.55;;;29.20;49.20;;;;;;5033366;28;20227;-81
2023/06/18 12:28:13;;;;;;;2.22;2.03;;;29.10;50.00;;;;;;5032795;28;20242;-82
2023/06/18 12:30:41;;;;;;;3.58;2.53;;;29.10;50.70;;;;;;5033265;28;20289;-81
2023/06/18 12:33:10;;;;;;;1.60;1.50;;;29.20;49.10;;;;;;5033273;28;20217;-81
2023/06/18 12:35:40;;;;;;;1.80;1.70;;;29.10;48.20;;;;;;5032909;28;20688;-81
2023/06/18 12:38:09;;;;;;;2.38;2.17;;;29.00;49.30;;;;;;5033212;28;20225;-81
2023/06/18 12:40:47;;;;;;;2.10;1.90;;;29.00;50.10;;;;;;5033142;28;20272;-81
2023/06/18 12:43:15;;;;;;;1.83;1.73;;;28.90;49.20;;;;;;5034328;28;20238;-81
2023/06/18 12:45:43;;;;;;;2.17;1.98;;;28.80;49.20;;;;;;5036864;28;20705;-82
2023/06/18 12:48:14;;;;;;;2.10;2.00;;;28.70;50.50;;;;;;5036798;28;20708;-81
2023/06/18 12:50:44;;;;;;;2.00;1.90;;;28.70;50.10;;;;;;5037190;28;20208;-81
2023/06/18 12:53:16;;;;;;;2.25;2.03;;;28.60;50.20;;;;;;5036820;28;20211;-82